The Plains, Virginia
Current Conditions -  °F | °C
As of 5:55 AM on Thursday 23 Oct 2014 (Local Time) from KHEF Reporting Station
Broken Clouds Broken Clouds  
Wind Chill: 52°   Ceiling: 4100
Heat Index: 52°   Visibility: 10mi
Dew Point: 43°   Wind: 16mph
Humidity: 71%   Direction: 320°NW
Pressure: 29.92"   Gusts: 21mph
Location:  38.86°N, 77.77°W
Report Text: KHEF 230955Z 32014G18KT 10SM BKN041 11/06 A2992 RMK AO1
Loading
Personal Weather Stations






























Interactive Weather Map
Tropical Storm Tracking
New forecast layout! Learn more

10-Day Weather Forecast

Advertisements
Track Severe Weather on mobile